Time;durP1;ratioP1;P1;durP2;ratioP2;P2;SDS_P1;SDS_P2;PMS_P1;PMS_P2;Temp;Humidity;BMP_temperature;BMP_pressure;BME280_temperature;BME280_humidity;BME280_pressure;Samples;Min_cycle;Max_cycle;Signal;HPM_P1;HPM_P2
2024/02/25 00:00:19;;;;;;;2.08;1.73;;;8.90;81.90;;;;;;4805232;29;20125;-82
2024/02/25 00:02:45;;;;;;;2.22;2.03;;;8.90;82.00;;;;;;4806006;29;20039;-90
2024/02/25 00:05:12;;;;;;;2.05;1.80;;;8.90;82.00;;;;;;4810278;29;20124;-82
2024/02/25 00:07:40;;;;;;;2.35;1.98;;;8.90;82.00;;;;;;4797505;29;20022;-84
2024/02/25 00:10:06;;;;;;;2.10;1.80;;;8.90;82.00;;;;;;4811444;29;20042;-83
2024/02/25 00:12:32;;;;;;;2.72;1.98;;;9.00;81.90;;;;;;4819048;29;20102;-81
2024/02/25 00:14:58;;;;;;;2.25;1.83;;;8.90;81.90;;;;;;4822190;29;20034;-87
2024/02/25 00:17:25;;;;;;;2.58;1.90;;;8.90;81.90;;;;;;4806844;29;20175;-90
2024/02/25 00:19:51;;;;;;;1.75;1.60;;;8.90;81.90;;;;;;4809524;29;20128;-94
2024/02/25 00:22:17;;;;;;;3.03;1.90;;;8.90;81.90;;;;;;4826838;29;21271;-89
2024/02/25 00:24:43;;;;;;;2.10;1.90;;;8.90;82.00;;;;;;4776935;29;20034;-83
2024/02/25 00:27:10;;;;;;;2.47;1.85;;;8.90;82.00;;;;;;4805441;29;20034;-83
2024/02/25 00:29:39;;;;;;;1.90;1.70;;;8.90;82.00;;;;;;4807057;29;20030;-89
2024/02/25 00:32:05;;;;;;;2.53;1.92;;;8.90;82.00;;;;;;4794227;29;20048;-90
2024/02/25 00:34:32;;;;;;;2.03;1.70;;;8.90;82.00;;;;;;4807413;29;20030;-82
2024/02/25 00:37:01;;;;;;;1.70;1.60;;;8.90;82.00;;;;;;4785216;29;20561;-82
2024/02/25 00:39:27;;;;;;;2.10;1.90;;;8.90;82.00;;;;;;4808608;29;20403;-82
2024/02/25 00:41:55;;;;;;;2.20;1.70;;;8.90;82.00;;;;;;4806910;29;20045;-82
2024/02/25 00:44:21;;;;;;;2.13;1.90;;;8.90;82.00;;;;;;4790878;29;20051;-90
2024/02/25 00:46:47;;;;;;;2.45;1.70;;;8.90;82.00;;;;;;4789313;29;20039;-90
2024/02/25 00:49:13;;;;;;;2.95;1.80;;;8.90;82.00;;;;;;4789884;29;20039;-82
2024/02/25 00:51:39;;;;;;;1.70;1.60;;;8.90;82.00;;;;;;4798788;29;20038;-90
2024/02/25 00:54:05;;;;;;;2.78;1.90;;;8.90;82.00;;;;;;4789246;29;20041;-83
2024/02/25 00:56:31;;;;;;;1.90;1.70;;;8.90;82.10;;;;;;4790817;29;20035;-82
2024/02/25 00:58:57;;;;;;;2.13;1.70;;;8.90;82.00;;;;;;4787266;29;20088;-82
2024/02/25 01:01:23;;;;;;;2.05;1.67;;;8.90;82.10;;;;;;4805117;29;20031;-83
2024/02/25 01:03:48;;;;;;;2.15;1.70;;;8.90;82.00;;;;;;4804110;29;20050;-93
2024/02/25 01:06:14;;;;;;;2.33;1.85;;;8.90;82.00;;;;;;4809516;29;20480;-82
2024/02/25 01:08:41;;;;;;;2.67;1.77;;;8.90;82.00;;;;;;4793370;29;20333;-89
2024/02/25 01:11:10;;;;;;;2.05;1.80;;;8.90;82.00;;;;;;4783959;29;20039;-93
2024/02/25 01:13:36;;;;;;;2.50;1.60;;;8.90;82.10;;;;;;4788680;29;20478;-90
2024/02/25 01:16:02;;;;;;;1.70;1.60;;;8.90;82.10;;;;;;4803456;29;20062;-90
2024/02/25 01:18:32;;;;;;;2.00;1.60;;;8.90;82.10;;;;;;4790423;29;20048;-82
2024/02/25 01:20:58;;;;;;;2.15;1.70;;;8.90;82.10;;;;;;4775564;29;20057;-83
2024/02/25 01:23:24;;;;;;;2.00;1.80;;;8.90;82.10;;;;;;4772128;29;20028;-83
2024/02/25 01:25:50;;;;;;;1.80;1.50;;;8.90;82.10;;;;;;4789181;29;20046;-91
2024/02/25 01:28:16;;;;;;;2.70;1.67;;;8.90;82.10;;;;;;4774195;29;20035;-83
2024/02/25 01:30:42;;;;;;;1.95;1.60;;;8.90;82.10;;;;;;4789016;29;20039;-82
2024/02/25 01:33:11;;;;;;;2.25;1.70;;;8.90;82.10;;;;;;4788832;29;20023;-90
2024/02/25 01:35:37;;;;;;;1.77;1.63;;;8.90;82.10;;;;;;4790501;29;20050;-93
2024/02/25 01:38:03;;;;;;;2.28;1.80;;;8.90;82.10;;;;;;4804492;29;20123;-93
2024/02/25 01:40:28;;;;;;;1.75;1.65;;;8.90;82.10;;;;;;4792567;29;20039;-83
2024/02/25 01:43:08;;;;;;;2.42;1.52;;;8.90;82.10;;;;;;4780109;29;20019;-90
2024/02/25 01:45:34;;;;;;;1.67;1.58;;;8.90;82.10;;;;;;4811811;29;20068;-90
2024/02/25 01:48:01;;;;;;;1.70;1.60;;;8.90;82.10;;;;;;4824464;29;20072;-89
2024/02/25 01:50:28;;;;;;;1.67;1.58;;;8.90;82.10;;;;;;4816941;29;20030;-83
2024/02/25 01:52:54;;;;;;;1.70;1.60;;;8.90;82.10;;;;;;4801919;29;20070;-90
2024/02/25 01:55:24;;;;;;;2.08;1.63;;;8.80;82.10;;;;;;4792458;29;20030;-90
2024/02/25 01:57:52;;;;;;;2.72;1.90;;;8.90;82.10;;;;;;4822228;29;20517;-83
2024/02/25 02:00:19;;;;;;;2.00;1.73;;;8.80;82.10;;;;;;4802784;29;20035;-90
2024/02/25 02:02:44;;;;;;;1.65;1.55;;;8.90;82.10;;;;;;4802929;29;20430;-82
2024/02/25 02:05:13;;;;;;;2.10;1.65;;;8.90;82.10;;;;;;4819653;29;20034;-92
2024/02/25 02:07:40;;;;;;;2.53;2.00;;;8.90;82.20;;;;;;4818939;29;20034;-91
2024/02/25 02:10:09;;;;;;;2.95;1.75;;;8.90;82.20;;;;;;4808274;29;20034;-83
2024/02/25 02:12:42;;;;;;;1.70;1.60;;;8.90;82.20;;;;;;4790255;29;20395;-90
2024/02/25 02:15:09;;;;;;;2.28;1.70;;;8.90;82.20;;;;;;4808025;29;20065;-92
2024/02/25 02:17:36;;;;;;;2.42;1.58;;;8.90;82.20;;;;;;4822189;29;20027;-82
2024/02/25 02:20:04;;;;;;;2.50;1.70;;;8.90;82.20;;;;;;4820950;29;20065;-93
2024/02/25 02:22:30;;;;;;;2.45;1.92;;;8.90;82.20;;;;;;4807633;29;20026;-90
2024/02/25 02:24:56;;;;;;;1.60;1.50;;;8.90;82.20;;;;;;4802644;29;20037;-93
2024/02/25 02:27:22;;;;;;;1.95;1.60;;;8.90;82.50;;;;;;4808111;29;20117;-92
2024/02/25 02:29:49;;;;;;;2.42;1.60;;;8.90;82.10;;;;;;4815185;29;20510;-83
2024/02/25 02:32:14;;;;;;;1.70;1.60;;;8.90;82.10;;;;;;4792663;29;20129;-84
2024/02/25 02:34:40;;;;;;;1.70;1.48;;;8.90;82.20;;;;;;4789002;29;20167;-89
2024/02/25 02:37:07;;;;;;;1.60;1.50;;;8.90;82.20;;;;;;4821446;29;20018;-91
2024/02/25 02:39:37;;;;;;;1.92;1.67;;;8.90;82.20;;;;;;4800065;29;20030;-84
2024/02/25 02:42:04;;;;;;;1.95;1.70;;;8.90;82.20;;;;;;4821967;29;20034;-82
2024/02/25 02:44:30;;;;;;;1.65;1.50;;;8.90;82.20;;;;;;4804739;29;20129;-91
2024/02/25 02:46:56;;;;;;;2.22;1.70;;;8.90;82.20;;;;;;4810573;29;20179;-90
2024/02/25 02:49:21;;;;;;;1.75;1.65;;;8.90;82.20;;;;;;4805961;29;20042;-90
2024/02/25 02:51:47;;;;;;;2.03;1.48;;;8.90;82.20;;;;;;4807447;29;20041;-82
2024/02/25 02:54:13;;;;;;;1.88;1.55;;;8.90;82.20;;;;;;4786310;29;20034;-82
2024/02/25 02:56:38;;;;;;;2.13;1.67;;;8.90;82.20;;;;;;4788164;29;20031;-83
2024/02/25 02:59:04;;;;;;;1.75;1.60;;;8.90;82.20;;;;;;4823296;29;20527;-93
2024/02/25 03:01:30;;;;;;;2.22;1.67;;;8.90;82.20;;;;;;4818834;29;20061;-91
2024/02/25 03:03:56;;;;;;;1.63;1.52;;;8.90;82.20;;;;;;4819170;29;20030;-82
2024/02/25 03:06:22;;;;;;;1.70;1.60;;;8.90;82.20;;;;;;4805397;29;20062;-92
2024/02/25 03:08:50;;;;;;;1.83;1.63;;;8.90;82.20;;;;;;4791573;29;20351;-83
2024/02/25 03:11:16;;;;;;;1.70;1.60;;;8.90;82.30;;;;;;4796963;29;20035;-92
2024/02/25 03:13:42;;;;;;;2.78;1.70;;;8.90;82.20;;;;;;4803528;29;20096;-84
2024/02/25 03:16:10;;;;;;;2.47;1.60;;;8.90;82.30;;;;;;4795514;29;20077;-82
2024/02/25 03:18:36;;;;;;;1.60;1.50;;;8.90;82.30;;;;;;4823541;29;20031;-90
2024/02/25 03:21:03;;;;;;;1.70;1.60;;;8.90;82.30;;;;;;4808788;29;20420;-93
2024/02/25 03:23:29;;;;;;;1.90;1.65;;;8.90;82.30;;;;;;4810450;29;20038;-83
2024/02/25 03:25:55;;;;;;;1.80;1.70;;;8.90;82.30;;;;;;4816317;29;20563;-84
2024/02/25 03:28:20;;;;;;;1.75;1.63;;;8.90;82.30;;;;;;4790382;29;20453;-91
2024/02/25 03:30:46;;;;;;;1.75;1.65;;;8.90;82.30;;;;;;4789702;29;20118;-84
2024/02/25 03:33:12;;;;;;;1.60;1.50;;;8.90;82.30;;;;;;4821132;29;20244;-84
2024/02/25 03:35:40;;;;;;;1.70;1.60;;;8.90;82.30;;;;;;4791652;29;20029;-93
2024/02/25 03:38:06;;;;;;;1.77;1.67;;;8.90;82.30;;;;;;4793804;29;20586;-84
2024/02/25 03:40:33;;;;;;;2.22;1.70;;;8.90;82.20;;;;;;4794968;29;20482;-90
2024/02/25 03:42:59;;;;;;;2.83;2.00;;;8.90;82.30;;;;;;4798757;29;20094;-93
2024/02/25 03:45:25;;;;;;;2.05;1.60;;;8.90;82.30;;;;;;4820976;29;20043;-82
2024/02/25 03:47:52;;;;;;;1.98;1.65;;;8.90;82.30;;;;;;4795365;29;20061;-84
2024/02/25 03:50:18;;;;;;;2.03;1.70;;;8.90;82.30;;;;;;4793879;29;20031;-82
2024/02/25 03:52:43;;;;;;;2.03;1.65;;;8.90;82.30;;;;;;4786390;29;20031;-83
2024/02/25 03:55:09;;;;;;;1.92;1.73;;;8.90;82.30;;;;;;4806447;29;20030;-93
2024/02/25 03:57:37;;;;;;;1.67;1.58;;;9.00;82.40;;;;;;4801362;29;20031;-82
2024/02/25 04:00:03;;;;;;;1.92;1.77;;;8.90;82.30;;;;;;4799006;29;20027;-91
2024/02/25 04:02:30;;;;;;;1.90;1.70;;;8.90;82.30;;;;;;4789141;29;20614;-84
2024/02/25 04:04:56;;;;;;;1.70;1.60;;;8.90;82.30;;;;;;4777542;29;20044;-93
2024/02/25 04:07:22;;;;;;;1.90;1.80;;;8.90;82.30;;;;;;4813301;29;20084;-82
2024/02/25 04:09:48;;;;;;;1.75;1.65;;;8.90;82.30;;;;;;4792438;29;20068;-90
2024/02/25 04:12:13;;;;;;;2.00;1.80;;;8.90;82.30;;;;;;4801097;29;20103;-82
2024/02/25 04:14:39;;;;;;;1.70;1.60;;;8.90;82.30;;;;;;4806201;29;20027;-91
2024/02/25 04:17:05;;;;;;;1.85;1.75;;;8.90;82.30;;;;;;4790747;29;20072;-91
2024/02/25 04:19:32;;;;;;;1.83;1.73;;;8.90;82.30;;;;;;4812248;29;20407;-91
2024/02/25 04:21:58;;;;;;;1.60;1.50;;;8.90;82.40;;;;;;4790194;29;20034;-82
2024/02/25 04:24:24;;;;;;;1.98;1.70;;;8.90;82.30;;;;;;4809753;29;20034;-82
2024/02/25 04:26:49;;;;;;;2.22;2.00;;;8.90;82.30;;;;;;4800228;29;20437;-82
2024/02/25 04:29:15;;;;;;;1.70;1.60;;;8.90;82.30;;;;;;4780352;29;20039;-92
2024/02/25 04:31:43;;;;;;;1.80;1.70;;;9.00;82.30;;;;;;4812198;29;20117;-90
2024/02/25 04:34:09;;;;;;;1.88;1.50;;;8.90;82.30;;;;;;4796681;29;20081;-91
2024/02/25 04:36:35;;;;;;;1.60;1.50;;;9.00;82.30;;;;;;4783001;29;20038;-83
2024/02/25 04:39:01;;;;;;;1.77;1.67;;;8.90;82.30;;;;;;4783232;29;20054;-90
2024/02/25 04:41:27;;;;;;;1.73;1.63;;;8.90;82.30;;;;;;4800774;29;20038;-90
2024/02/25 04:43:53;;;;;;;1.98;1.70;;;9.00;82.30;;;;;;4795790;29;20030;-82
2024/02/25 04:46:19;;;;;;;1.70;1.60;;;8.90;82.30;;;;;;4823877;29;20038;-82
2024/02/25 04:48:45;;;;;;;1.70;1.60;;;8.90;82.30;;;;;;4791359;29;20039;-84
2024/02/25 04:51:11;;;;;;;1.60;1.50;;;8.90;82.30;;;;;;4788999;29;20037;-83
2024/02/25 04:53:40;;;;;;;1.60;1.50;;;9.00;82.40;;;;;;4813145;29;20061;-82
2024/02/25 04:56:06;;;;;;;1.85;1.70;;;8.90;82.30;;;;;;4794556;29;20034;-82
2024/02/25 04:58:32;;;;;;;1.63;1.52;;;9.00;82.30;;;;;;4792070;29;20394;-82
2024/02/25 05:01:01;;;;;;;1.65;1.55;;;8.90;82.30;;;;;;4805560;29;20030;-82
2024/02/25 05:03:27;;;;;;;1.70;1.60;;;9.00;82.30;;;;;;4802421;29;20058;-84
2024/02/25 05:05:53;;;;;;;1.50;1.40;;;9.00;82.40;;;;;;4808764;29;20081;-83
2024/02/25 05:08:18;;;;;;;1.80;1.70;;;9.00;82.30;;;;;;4823817;29;20046;-90
2024/02/25 05:10:44;;;;;;;1.70;1.60;;;9.00;82.30;;;;;;4805867;29;20030;-91
2024/02/25 05:13:10;;;;;;;1.95;1.80;;;9.00;82.30;;;;;;4809835;29;20030;-82
2024/02/25 05:15:37;;;;;;;1.52;1.42;;;9.00;82.30;;;;;;4808043;29;20392;-82
2024/02/25 05:18:03;;;;;;;1.60;1.50;;;9.00;82.30;;;;;;4805154;29;20127;-82
2024/02/25 05:20:28;;;;;;;1.60;1.50;;;9.00;82.30;;;;;;4808269;29;20121;-92
2024/02/25 05:22:55;;;;;;;1.70;1.60;;;8.90;82.30;;;;;;4808410;29;20026;-91
2024/02/25 05:25:21;;;;;;;1.63;1.52;;;9.00;82.40;;;;;;4816219;29;20030;-92
2024/02/25 05:27:47;;;;;;;1.73;1.63;;;9.00;82.40;;;;;;4808128;29;20052;-90
2024/02/25 05:30:14;;;;;;;1.70;1.60;;;9.00;82.40;;;;;;4823969;29;20047;-84
2024/02/25 05:32:40;;;;;;;1.58;1.48;;;9.00;82.40;;;;;;4809226;29;20049;-90
2024/02/25 05:35:07;;;;;;;1.73;1.63;;;9.00;82.40;;;;;;4791994;29;20068;-90
2024/02/25 05:37:33;;;;;;;2.55;1.50;;;9.00;82.40;;;;;;4798983;29;20034;-90
2024/02/25 05:39:59;;;;;;;1.70;1.60;;;9.00;82.40;;;;;;4807145;29;20051;-90
2024/02/25 05:42:25;;;;;;;1.67;1.50;;;9.00;82.40;;;;;;4791297;29;20483;-84
2024/02/25 05:44:51;;;;;;;2.13;1.70;;;9.00;82.30;;;;;;4804998;29;20469;-84
2024/02/25 05:47:17;;;;;;;1.73;1.63;;;9.00;82.40;;;;;;4793947;29;20022;-93
2024/02/25 05:49:44;;;;;;;1.70;1.60;;;9.00;82.40;;;;;;4808748;29;20030;-84
2024/02/25 05:52:09;;;;;;;1.70;1.60;;;9.00;82.40;;;;;;4806731;29;20041;-84
2024/02/25 05:54:35;;;;;;;1.70;1.60;;;9.00;82.40;;;;;;4794500;29;20022;-93
2024/02/25 05:57:01;;;;;;;1.70;1.60;;;9.00;82.40;;;;;;4820625;29;20031;-85
2024/02/25 05:59:27;;;;;;;1.77;1.67;;;9.00;82.40;;;;;;4811619;29;20125;-84
2024/02/25 06:01:53;;;;;;;1.75;1.65;;;9.00;82.40;;;;;;4806180;29;20099;-92
2024/02/25 06:04:20;;;;;;;1.77;1.67;;;9.00;82.40;;;;;;4807420;29;20113;-90
2024/02/25 06:06:53;;;;;;;1.60;1.50;;;9.00;82.40;;;;;;4804569;29;20038;-90
2024/02/25 06:09:19;;;;;;;2.13;1.60;;;9.00;82.40;;;;;;4818714;29;20035;-84
2024/02/25 06:11:47;;;;;;;1.60;1.50;;;9.00;82.40;;;;;;4805985;29;20031;-93
2024/02/25 06:14:13;;;;;;;2.20;2.00;;;9.00;82.40;;;;;;4791546;29;20043;-84
2024/02/25 06:16:43;;;;;;;1.75;1.60;;;9.00;82.40;;;;;;4791653;29;20041;-87
2024/02/25 06:19:09;;;;;;;1.70;1.60;;;9.00;82.40;;;;;;4791123;29;20042;-84
2024/02/25 06:21:35;;;;;;;1.73;1.63;;;9.00;82.40;;;;;;4790660;29;20053;-83
2024/02/25 06:24:03;;;;;;;1.60;1.50;;;9.00;82.40;;;;;;4808567;29;20125;-83
2024/02/25 06:26:31;;;;;;;1.70;1.60;;;9.00;82.40;;;;;;4809013;29;20031;-91
2024/02/25 06:28:58;;;;;;;1.67;1.58;;;9.00;82.40;;;;;;4808451;29;20052;-94
2024/02/25 06:31:25;;;;;;;1.70;1.60;;;9.00;82.40;;;;;;4800594;29;20026;-83
2024/02/25 06:33:51;;;;;;;1.73;1.63;;;9.00;82.40;;;;;;4819209;29;20095;-83
2024/02/25 06:36:19;;;;;;;1.77;1.67;;;9.00;82.40;;;;;;4804146;29;20022;-93
2024/02/25 06:38:46;;;;;;;1.70;1.60;;;9.00;82.40;;;;;;4792939;29;20026;-93
2024/02/25 06:41:40;;;;;;;1.80;1.70;;;9.00;82.40;;;;;;4811085;29;20034;-94
2024/02/25 06:44:05;;;;;;;1.70;1.60;;;9.00;82.40;;;;;;4789339;29;20054;-84
2024/02/25 06:46:31;;;;;;;2.10;1.90;;;9.00;82.40;;;;;;4808181;29;20030;-91
2024/02/25 06:48:57;;;;;;;1.65;1.55;;;9.00;82.40;;;;;;4792953;29;20392;-93
2024/02/25 06:51:26;;;;;;;1.83;1.70;;;9.00;82.40;;;;;;4813739;29;20042;-90
2024/02/25 06:53:55;;;;;;;1.80;1.70;;;9.00;82.40;;;;;;4790616;29;20091;-91
2024/02/25 06:56:21;;;;;;;1.80;1.70;;;9.00;82.40;;;;;;4805647;29;20514;-84
2024/02/25 06:58:47;;;;;;;2.08;1.88;;;9.00;82.40;;;;;;4805223;29;20039;-84
2024/02/25 07:01:13;;;;;;;1.70;1.60;;;9.00;82.40;;;;;;4792032;29;20033;-84
2024/02/25 07:03:45;;;;;;;1.67;1.58;;;9.00;82.40;;;;;;4803285;29;20034;-91
2024/02/25 07:06:15;;;;;;;1.80;1.70;;;9.00;82.40;;;;;;4808199;29;20452;-94
2024/02/25 07:08:41;;;;;;;1.95;1.80;;;9.00;82.40;;;;;;4805852;29;20026;-90
2024/02/25 07:11:34;;;;;;;1.83;1.67;;;9.00;82.40;;;;;;4804472;29;20030;-93
2024/02/25 07:14:00;;;;;;;2.00;1.80;;;9.00;82.40;;;;;;4805134;29;20399;-93
2024/02/25 07:16:26;;;;;;;1.75;1.65;;;9.00;82.40;;;;;;4825193;29;20022;-93
2024/02/25 07:18:52;;;;;;;1.80;1.70;;;9.00;82.40;;;;;;4789984;29;20557;-84
2024/02/25 07:21:18;;;;;;;2.10;1.90;;;9.00;82.40;;;;;;4791136;29;20033;-84
2024/02/25 07:23:43;;;;;;;1.95;1.80;;;9.00;82.40;;;;;;4805411;29;20022;-90
2024/02/25 07:26:11;;;;;;;2.28;1.90;;;9.00;82.40;;;;;;4792254;29;20376;-84
2024/02/25 07:28:41;;;;;;;1.80;1.70;;;9.00;82.40;;;;;;4806358;29;20037;-84
2024/02/25 07:31:15;;;;;;;2.17;1.90;;;9.10;82.50;;;;;;4807239;29;20038;-93
2024/02/25 07:33:41;;;;;;;2.28;1.95;;;9.00;82.40;;;;;;4804733;29;20502;-82
2024/02/25 07:36:15;;;;;;;1.98;1.77;;;9.00;82.40;;;;;;4803743;29;20079;-84
2024/02/25 07:38:41;;;;;;;2.20;1.92;;;9.00;82.50;;;;;;4798974;29;20117;-92
2024/02/25 07:41:08;;;;;;;2.00;1.90;;;9.00;82.40;;;;;;4790503;29;20045;-82
2024/02/25 07:43:35;;;;;;;1.98;1.80;;;9.00;82.40;;;;;;4803388;29;20035;-90
2024/02/25 07:46:05;;;;;;;2.45;2.10;;;9.00;82.50;;;;;;4804826;29;20059;-93
2024/02/25 07:48:31;;;;;;;2.20;2.00;;;9.00;82.40;;;;;;4776357;29;20042;-85
2024/02/25 07:50:58;;;;;;;2.70;2.30;;;9.00;82.40;;;;;;4803431;29;20452;-90
2024/02/25 07:53:24;;;;;;;2.45;2.00;;;9.00;82.40;;;;;;4810212;29;20042;-90
2024/02/25 07:55:51;;;;;;;2.50;2.05;;;9.00;82.40;;;;;;4804623;29;20103;-91
2024/02/25 07:58:16;;;;;;;2.88;2.03;;;9.00;82.40;;;;;;4791091;29;20031;-90
2024/02/25 08:00:43;;;;;;;2.47;2.20;;;9.00;82.40;;;;;;4790974;29;20056;-83
2024/02/25 08:03:09;;;;;;;2.30;2.10;;;9.10;82.50;;;;;;4807817;29;20069;-83
2024/02/25 08:05:34;;;;;;;2.25;2.05;;;9.10;82.50;;;;;;4802539;29;20117;-83
2024/02/25 08:08:01;;;;;;;2.30;2.10;;;9.10;82.50;;;;;;4823100;29;20030;-90
2024/02/25 08:10:27;;;;;;;3.30;2.20;;;9.10;82.50;;;;;;4811310;29;20109;-83
2024/02/25 08:12:55;;;;;;;2.50;2.20;;;9.10;82.50;;;;;;4810115;29;20042;-82
2024/02/25 08:15:21;;;;;;;2.45;2.25;;;9.10;82.50;;;;;;4803466;29;20361;-82
2024/02/25 08:17:50;;;;;;;2.50;2.20;;;9.10;82.50;;;;;;4819813;29;20042;-82
2024/02/25 08:20:16;;;;;;;2.90;2.40;;;9.10;82.50;;;;;;4805706;29;20425;-90
2024/02/25 08:22:41;;;;;;;2.95;2.38;;;9.10;82.50;;;;;;4792255;29;20030;-91
2024/02/25 08:25:09;;;;;;;2.33;2.13;;;9.10;82.50;;;;;;4797582;29;20092;-83
2024/02/25 08:27:37;;;;;;;3.05;2.40;;;9.10;82.50;;;;;;4804441;29;20042;-90
2024/02/25 08:30:03;;;;;;;2.58;2.13;;;9.20;82.60;;;;;;4810865;29;20026;-82
2024/02/25 08:32:30;;;;;;;2.50;2.30;;;9.10;82.50;;;;;;4819377;29;20035;-83
2024/02/25 08:34:56;;;;;;;2.60;2.25;;;9.10;82.50;;;;;;4797810;29;20027;-84
2024/02/25 08:37:26;;;;;;;2.58;2.35;;;9.10;82.50;;;;;;4820735;29;20684;-84
2024/02/25 08:39:53;;;;;;;2.60;2.33;;;9.20;82.60;;;;;;4810135;29;20532;-90
2024/02/25 08:42:19;;;;;;;2.40;2.15;;;9.20;82.60;;;;;;4807723;29;20514;-82
2024/02/25 08:44:46;;;;;;;2.60;2.40;;;9.20;82.60;;;;;;4800990;29;20049;-90
2024/02/25 08:47:12;;;;;;;2.97;2.30;;;9.20;82.60;;;;;;4800395;29;20029;-91
2024/02/25 08:49:46;;;;;;;3.33;2.42;;;9.20;82.50;;;;;;4786627;29;20026;-90
2024/02/25 08:52:13;;;;;;;2.70;2.38;;;9.20;82.60;;;;;;4801647;29;20255;-91
2024/02/25 08:54:45;;;;;;;2.40;2.20;;;9.20;82.50;;;;;;4803570;29;20031;-90
2024/02/25 08:57:17;;;;;;;2.58;2.30;;;9.20;82.60;;;;;;4783528;29;20044;-92
2024/02/25 08:59:49;;;;;;;2.58;2.30;;;9.30;82.60;;;;;;4782955;29;20047;-92
2024/02/25 09:02:17;;;;;;;3.10;2.40;;;9.20;82.50;;;;;;4784426;29;20062;-93
2024/02/25 09:04:43;;;;;;;2.60;2.40;;;9.30;82.60;;;;;;4781257;29;20043;-84
2024/02/25 09:07:10;;;;;;;2.53;2.33;;;9.30;82.60;;;;;;4762396;30;20447;-84
2024/02/25 09:09:36;;;;;;;2.63;2.35;;;9.30;82.60;;;;;;4780406;30;20039;-86
2024/02/25 09:12:03;;;;;;;2.38;2.17;;;9.30;82.60;;;;;;4767321;30;20059;-87
2024/02/25 09:14:29;;;;;;;2.65;2.40;;;9.30;82.60;;;;;;4779438;29;20043;-87
2024/02/25 09:16:54;;;;;;;3.47;2.63;;;9.30;82.60;;;;;;4759945;30;20054;-87
2024/02/25 09:19:21;;;;;;;3.15;2.53;;;9.30;82.60;;;;;;4764555;30;20576;-87
2024/02/25 09:21:48;;;;;;;2.92;2.38;;;9.30;82.60;;;;;;4775406;29;20042;-89
2024/02/25 09:24:14;;;;;;;2.58;2.22;;;9.30;82.60;;;;;;4774085;30;20099;-89
2024/02/25 09:26:45;;;;;;;3.13;2.50;;;9.30;82.50;;;;;;4778162;30;20039;-83
2024/02/25 09:29:14;;;;;;;2.92;2.35;;;9.40;82.60;;;;;;4812626;29;20050;-83
2024/02/25 09:31:40;;;;;;;2.83;2.40;;;9.30;82.60;;;;;;4798037;29;20698;-86
2024/02/25 09:34:08;;;;;;;2.45;2.15;;;9.40;82.60;;;;;;4809831;29;20074;-87
2024/02/25 09:36:34;;;;;;;3.70;2.53;;;9.40;82.60;;;;;;4792523;29;20066;-82
2024/02/25 09:39:03;;;;;;;2.75;2.50;;;9.40;82.60;;;;;;4783637;29;20042;-84
2024/02/25 09:41:35;;;;;;;2.95;2.58;;;9.40;82.60;;;;;;4820635;29;20099;-85
2024/02/25 09:44:02;;;;;;;2.95;2.55;;;9.40;82.60;;;;;;4797712;29;20039;-81
2024/02/25 09:46:32;;;;;;;2.60;2.40;;;9.50;82.60;;;;;;4809937;29;20133;-89
2024/02/25 09:48:58;;;;;;;3.22;2.63;;;9.50;82.60;;;;;;4796904;29;20035;-87
2024/02/25 09:51:24;;;;;;;2.95;2.47;;;9.40;82.50;;;;;;4793770;29;20109;-80
2024/02/25 09:53:52;;;;;;;2.60;2.40;;;9.50;82.60;;;;;;4795223;29;20043;-84
2024/02/25 09:56:19;;;;;;;2.78;2.50;;;9.50;82.50;;;;;;4795484;29;20027;-83
2024/02/25 09:58:49;;;;;;;2.85;2.58;;;9.50;82.50;;;;;;4783698;29;20068;-90
2024/02/25 10:01:16;;;;;;;2.40;2.20;;;9.50;82.50;;;;;;4794543;29;20042;-88
2024/02/25 10:03:42;;;;;;;3.38;2.67;;;9.50;82.50;;;;;;4808852;29;20420;-83
2024/02/25 10:06:12;;;;;;;3.65;2.40;;;9.60;82.50;;;;;;4792070;29;20026;-88
2024/02/25 10:08:49;;;;;;;2.95;2.50;;;9.60;82.50;;;;;;4797822;29;20042;-87
2024/02/25 10:11:15;;;;;;;3.08;2.60;;;9.60;82.40;;;;;;4810415;29;20134;-81
2024/02/25 10:13:46;;;;;;;2.90;2.40;;;9.60;82.40;;;;;;4810382;29;20042;-83
2024/02/25 10:16:19;;;;;;;2.80;2.40;;;9.70;82.50;;;;;;4794894;29;20050;-83
2024/02/25 10:18:50;;;;;;;2.97;2.42;;;9.70;82.50;;;;;;4802168;29;20031;-85
2024/02/25 10:21:18;;;;;;;2.80;2.50;;;9.70;82.50;;;;;;4797865;29;20121;-88
2024/02/25 10:23:45;;;;;;;3.17;2.53;;;9.70;82.40;;;;;;4810972;29;20030;-89
2024/02/25 10:26:15;;;;;;;3.05;2.55;;;9.70;82.40;;;;;;4808215;29;20053;-91
2024/02/25 10:28:46;;;;;;;2.40;2.20;;;9.70;82.40;;;;;;4800058;29;20042;-89
2024/02/25 10:31:17;;;;;;;3.45;2.40;;;9.70;82.30;;;;;;4797729;29;20042;-87
2024/02/25 10:33:44;;;;;;;2.72;2.40;;;9.70;82.30;;;;;;4780171;29;20134;-86
2024/02/25 10:36:13;;;;;;;3.40;2.47;;;9.70;82.30;;;;;;4786205;29;20055;-85
2024/02/25 10:38:46;;;;;;;2.97;2.63;;;9.80;82.30;;;;;;4783571;29;20034;-91
2024/02/25 10:41:15;;;;;;;2.80;2.50;;;9.80;82.20;;;;;;4783731;29;20037;-88
2024/02/25 10:43:44;;;;;;;2.72;2.45;;;9.80;82.20;;;;;;4795606;29;20034;-87
2024/02/25 10:46:28;;;;;;;3.08;2.38;;;9.80;82.20;;;;;;4786206;29;20046;-81
2024/02/25 10:48:57;;;;;;;3.10;2.60;;;9.90;82.30;;;;;;4811297;29;20045;-84
2024/02/25 10:51:28;;;;;;;3.10;2.67;;;9.90;82.30;;;;;;4813641;29;20162;-87
2024/02/25 10:53:54;;;;;;;3.45;2.75;;;9.90;82.20;;;;;;4804676;29;20297;-87
2024/02/25 10:56:21;;;;;;;3.22;2.70;;;9.90;82.20;;;;;;4794903;29;20389;-83
2024/02/25 10:58:51;;;;;;;3.60;2.97;;;9.90;82.20;;;;;;4785030;29;20082;-83
2024/02/25 11:01:19;;;;;;;3.38;2.85;;;10.00;82.20;;;;;;4812450;29;20508;-83
2024/02/25 11:03:46;;;;;;;3.50;2.90;;;10.00;82.10;;;;;;4814392;29;20619;-88
2024/02/25 11:06:29;;;;;;;3.65;2.85;;;10.00;82.70;;;;;;4794431;29;20034;-81
2024/02/25 11:09:12;;;;;;;3.17;2.88;;;10.10;82.10;;;;;;4811904;29;20543;-85
2024/02/25 11:11:39;;;;;;;3.95;3.30;;;10.10;82.10;;;;;;4797442;29;20054;-81
2024/02/25 11:14:13;;;;;;;3.65;2.80;;;10.00;82.00;;;;;;4785569;29;20030;-85
2024/02/25 11:16:46;;;;;;;3.60;2.80;;;10.10;82.10;;;;;;4799503;29;20075;-82
2024/02/25 11:19:16;;;;;;;3.53;3.00;;;10.10;82.30;;;;;;4816295;29;20023;-81
2024/02/25 11:21:42;;;;;;;3.60;3.03;;;10.10;82.00;;;;;;4823575;29;20041;-81
2024/02/25 11:24:12;;;;;;;4.47;3.40;;;10.10;81.90;;;;;;4812315;29;20019;-83
2024/02/25 11:26:45;;;;;;;3.65;3.15;;;10.20;82.00;;;;;;4800394;29;20484;-81
2024/02/25 11:29:25;;;;;;;3.65;3.20;;;10.20;81.90;;;;;;4796658;29;20117;-86
2024/02/25 11:31:59;;;;;;;3.30;2.88;;;10.20;81.90;;;;;;4785056;29;20038;-83
2024/02/25 11:34:34;;;;;;;3.90;3.10;;;10.20;81.80;;;;;;4801813;29;20059;-86
2024/02/25 11:37:03;;;;;;;3.35;2.92;;;10.30;81.80;;;;;;4814774;29;20561;-87
2024/02/25 11:39:30;;;;;;;3.47;3.15;;;10.30;81.80;;;;;;4808651;29;20555;-87
2024/02/25 11:42:17;;;;;;;3.80;3.13;;;10.30;81.80;;;;;;4804442;29;20711;-88
2024/02/25 11:44:43;;;;;;;3.15;2.80;;;10.30;81.80;;;;;;4762418;30;20051;-83
2024/02/25 11:47:09;;;;;;;4.03;3.35;;;10.40;81.70;;;;;;4779657;29;20043;-87
2024/02/25 11:49:37;;;;;;;3.97;3.22;;;10.30;81.70;;;;;;4764328;30;20634;-84
2024/02/25 11:52:03;;;;;;;3.38;2.90;;;10.40;81.70;;;;;;4769373;29;20211;-83
2024/02/25 11:54:30;;;;;;;4.00;3.38;;;10.40;81.70;;;;;;4764859;30;20219;-87
2024/02/25 11:56:56;;;;;;;3.90;3.33;;;10.40;81.60;;;;;;4762536;30;20086;-83
2024/02/25 11:59:22;;;;;;;3.90;3.30;;;10.40;81.60;;;;;;4767203;30;20066;-88
2024/02/25 12:01:49;;;;;;;4.20;3.30;;;10.40;81.60;;;;;;4770719;30;20197;-88
2024/02/25 12:04:17;;;;;;;3.55;3.20;;;10.50;81.70;;;;;;4771111;30;20134;-87
2024/02/25 12:06:45;;;;;;;3.97;3.35;;;10.50;81.70;;;;;;4769755;30;20115;-87
2024/02/25 12:09:15;;;;;;;3.78;3.20;;;10.50;81.70;;;;;;4769370;30;20065;-87
2024/02/25 12:11:41;;;;;;;3.78;3.28;;;10.50;81.70;;;;;;4784247;29;20504;-88
2024/02/25 12:14:13;;;;;;;4.30;3.50;;;10.50;81.70;;;;;;4769314;30;20122;-87
2024/02/25 12:16:40;;;;;;;4.40;3.50;;;10.50;81.70;;;;;;4805676;29;20069;-82
2024/02/25 12:19:10;;;;;;;4.32;3.65;;;10.50;81.70;;;;;;4821033;29;20042;-82
2024/02/25 12:21:37;;;;;;;3.97;3.40;;;10.60;81.70;;;;;;4809345;29;20085;-88
2024/02/25 12:24:06;;;;;;;4.28;3.30;;;10.60;81.70;;;;;;4821591;29;20041;-87
2024/02/25 12:26:55;;;;;;;3.65;3.13;;;10.60;81.70;;;;;;4808224;29;20229;-82
2024/02/25 12:29:23;;;;;;;4.72;3.50;;;10.70;81.80;;;;;;4804091;29;20030;-82
2024/02/25 12:31:49;;;;;;;4.35;3.67;;;10.60;81.70;;;;;;4807385;29;20047;-84
2024/02/25 12:34:16;;;;;;;3.90;3.17;;;10.70;81.70;;;;;;4810282;29;20041;-82
2024/02/25 12:36:46;;;;;;;4.05;3.53;;;10.70;81.70;;;;;;4829542;29;20052;-89
2024/02/25 12:39:20;;;;;;;4.32;3.30;;;10.70;81.80;;;;;;4805146;29;20034;-83
2024/02/25 12:42:05;;;;;;;4.70;3.88;;;10.70;81.70;;;;;;4807079;29;20115;-89
2024/02/25 12:44:31;;;;;;;3.65;3.13;;;10.80;81.70;;;;;;4802039;29;20027;-83
2024/02/25 12:47:05;;;;;;;4.00;3.45;;;10.80;81.70;;;;;;4824078;29;20054;-84
2024/02/25 12:49:32;;;;;;;3.80;3.28;;;10.80;81.60;;;;;;4790468;29;20050;-82
2024/02/25 12:51:59;;;;;;;3.72;3.25;;;10.80;82.20;;;;;;4809501;29;20058;-91
2024/02/25 12:54:27;;;;;;;4.00;3.38;;;10.90;81.70;;;;;;4792825;29;20031;-82
2024/02/25 12:56:55;;;;;;;3.97;3.33;;;10.90;81.60;;;;;;4817670;29;20043;-89